»·PEaware :: N380SP KSMX-KBFL

N380SP :: KSMX-KBFL

FLIGHT INFORMATION

Flight Status: Arrived
Operator: Privately registered:
United States
More flights under this callsign
Pilot: Kevin S. (26378)
Aircraft: CESSNA 172 SKYHAWK
(C172)
More flights by this aircraft type
Origin: KSMX Santa Maria Pub/Capt Hancock
United States
Destination: KBFL Meadows
United States
More flights between these airports :: More routes between these airports
Route:
File this flight plan on PilotEdge
Remarks:
Altitude:
(Current/Filed)
7,500ft
Speed:
(Current/Filed)
110kts
Departed: 29-Sep-19 03:55 PM
Arrived: 29-Sep-19 04:59 PM
Distance/Time
Traveled:
76nm/1:04
Distance/Time
To Go:
Arrived

Flight Plot

Page will automatically refresh every two minutes.


Map Options




Map Legend


Flown Route
Filed Route
Departure Airport
Arrival Airport
Navaid (VOR, NDB)
Fix

Horizontal Profiles

Position Reports

Time Latitude Longitude Heading Altitude Ground
Speed
29-Sep-19 15:41 34.895642 -120.444789 314 265ft 0kts
29-Sep-19 15:42 34.895642 -120.444789 314 265ft 0kts
29-Sep-19 15:43 34.895642 -120.444789 314 265ft 0kts
29-Sep-19 15:44 34.895642 -120.444789 314 265ft 0kts
29-Sep-19 15:45 34.895642 -120.444789 314 265ft 0kts
29-Sep-19 15:46 34.895642 -120.444789 314 265ft 0kts
29-Sep-19 15:47 34.895642 -120.444789 314 265ft 0kts
29-Sep-19 15:48 34.895642 -120.444789 314 265ft 0kts
29-Sep-19 15:49 34.895642 -120.444789 314 265ft 0kts
29-Sep-19 15:50 34.895272 -120.445037 137 265ft 9kts
29-Sep-19 15:51 34.893400 -120.445256 180 265ft 0kts
29-Sep-19 15:52 34.893399 -120.445256 182 265ft 0kts
29-Sep-19 15:53 34.893392 -120.445257 194 265ft 0kts
29-Sep-19 15:54 34.896550 -120.450333 314 404ft 62kts
29-Sep-19 15:55 34.907935 -120.463330 322 1530ft 56kts
29-Sep-19 15:56 34.921245 -120.474470 336 2530ft 63kts
29-Sep-19 15:57 34.940088 -120.470192 7 3495ft 75kts
29-Sep-19 15:58 34.958568 -120.456090 15 4394ft 80kts
29-Sep-19 15:59 34.971063 -120.430824 50 5273ft 89kts
29-Sep-19 16:00 34.986975 -120.408250 33 6041ft 89kts
29-Sep-19 16:01 35.003529 -120.385955 52 6785ft 97kts
29-Sep-19 16:02 35.014463 -120.355569 56 7447ft 101kts
29-Sep-19 16:03 35.025013 -120.323755 55 7533ft 99kts
29-Sep-19 16:04 35.030424 -120.289570 98 7458ft 110kts
29-Sep-19 16:05 35.025770 -120.253092 98 7418ft 109kts
29-Sep-19 16:06 35.022326 -120.216716 88 7374ft 108kts
29-Sep-19 16:07 35.018960 -120.180218 91 7337ft 107kts
29-Sep-19 16:08 35.017616 -120.143817 79 7298ft 106kts
29-Sep-19 16:09 35.021464 -120.108031 74 7304ft 104kts
29-Sep-19 16:10 35.028821 -120.073847 68 7386ft 104kts
29-Sep-19 16:11 35.031756 -120.052850 80 7437ft 106kts
29-Sep-19 16:12 35.028970 -120.016463 106 7520ft 108kts
29-Sep-19 16:13 35.021403 -119.980626 98 7503ft 109kts
29-Sep-19 16:14 35.015620 -119.949503 103 7455ft 109kts
29-Sep-19 16:15 35.012281 -119.921899 89 7424ft 107kts
29-Sep-19 16:16 35.012009 -119.885692 78 7370ft 106kts
29-Sep-19 16:17 35.019051 -119.851291 65 7333ft 103kts
29-Sep-19 16:18 35.028657 -119.819447 61 7333ft 102kts
29-Sep-19 16:19 35.037288 -119.785728 70 7308ft 106kts
29-Sep-19 16:20 35.040300 -119.750256 86 7322ft 105kts
29-Sep-19 16:21 35.050703 -119.716791 50 7282ft 104kts
29-Sep-19 16:22 35.064894 -119.685637 57 7374ft 106kts
29-Sep-19 16:23 35.077041 -119.652617 52 7430ft 105kts
29-Sep-19 16:24 35.090682 -119.620866 54 7485ft 106kts
29-Sep-19 16:25 35.092578 -119.583919 64 7517ft 109kts
29-Sep-19 16:26 35.110199 -119.556942 41 7509ft 101kts
29-Sep-19 16:27 35.123778 -119.525477 58 7369ft 106kts
29-Sep-19 16:28 35.137034 -119.493786 57 7239ft 106kts
29-Sep-19 16:29 35.149590 -119.462614 35 7247ft 98kts
29-Sep-19 16:30 35.166917 -119.435996 41 7374ft 102kts
29-Sep-19 16:31 35.181401 -119.405540 56 7530ft 105kts
29-Sep-19 16:32 35.192274 -119.371678 68 7577ft 109kts
29-Sep-19 16:33 35.201022 -119.336832 65 7557ft 108kts
29-Sep-19 16:34 35.209123 -119.299887 73 7296ft 105kts
29-Sep-19 16:35 35.211169 -119.263969 77 7332ft 106kts
29-Sep-19 16:36 35.214729 -119.226718 79 7517ft 112kts
29-Sep-19 16:37 35.230766 -119.199156 33 7437ft 102kts
29-Sep-19 16:38 35.248686 -119.171553 48 7420ft 104kts
29-Sep-19 16:39 35.260981 -119.140003 60 7500ft 103kts
29-Sep-19 16:40 35.270369 -119.107116 67 7374ft 104kts
29-Sep-19 16:41 35.282558 -119.076735 57 7275ft 99kts
29-Sep-19 16:42 35.292198 -119.045057 26 7190ft 93kts
29-Sep-19 16:43 35.314165 -119.039575 15 7373ft 81kts
29-Sep-19 16:44 35.331843 -119.015730 39 7437ft 96kts
29-Sep-19 16:45 35.329855 -118.998685 270 6248ft 93kts
29-Sep-19 16:46 35.328593 -118.987447 219 4571ft 112kts
29-Sep-19 16:47 35.339771 -119.012742 227 2528ft 119kts
29-Sep-19 16:48 35.345850 -119.007042 334 1919ft 77kts
29-Sep-19 16:49 35.368173 -119.007957 356 1324ft 85kts
29-Sep-19 16:50 35.391198 -119.019200 358 1408ft 98kts
29-Sep-19 16:51 35.408041 -119.030775 318 729ft 66kts
29-Sep-19 16:52 35.423043 -119.047011 319 626ft 64kts
29-Sep-19 16:53 35.432325 -119.064556 242 739ft 96kts
29-Sep-19 16:54 35.409968 -119.064842 137 1463ft 105kts
29-Sep-19 16:55 35.389589 -119.039927 108 1454ft 103kts
29-Sep-19 16:56 35.403725 -119.022397 333 966ft 86kts
29-Sep-19 16:57 35.421374 -119.040977 315 615ft 77kts
29-Sep-19 16:58 35.432427 -119.054386 319 487ft 37kts
29-Sep-19 16:59 35.436320 -119.057671 69 493ft 0kts

Navigation Log

Ident Type
Flight plan parsing failed, navigation log unavailable